Time;durP1;ratioP1;P1;durP2;ratioP2;P2;SDS_P1;SDS_P2;PMS_P1;PMS_P2;Temp;Humidity;BMP_temperature;BMP_pressure;BME280_temperature;BME280_humidity;BME280_pressure;Samples;Min_cycle;Max_cycle;Signal;HPM_P1;HPM_P2
2022/01/24 00:00:54;;;;;;;5.85;3.40;;;;;;;-2.65;77.28;100539.19;5068260;28;20041;-47
2022/01/24 00:03:19;;;;;;;6.90;3.80;;;;;;;-2.47;77.43;100538.94;5055587;28;20338;-49
2022/01/24 00:05:45;;;;;;;7.25;3.78;;;;;;;-2.47;77.92;100537.16;5063609;28;20035;-51
2022/01/24 00:08:10;;;;;;;6.03;3.38;;;;;;;-2.40;75.26;100542.78;5062521;28;20636;-48
2022/01/24 00:10:38;;;;;;;9.55;3.25;;;;;;;-2.65;78.40;100541.78;5056659;28;20072;-48
2022/01/24 00:18:30;;;;;;;7.40;3.72;;;;;;;-2.37;76.58;100548.66;5054986;28;20031;-48
2022/01/24 00:29:07;;;;;;;6.50;3.83;;;;;;;-2.37;76.88;100563.47;5067513;28;20038;-48
2022/01/24 00:31:33;;;;;;;6.78;3.63;;;;;;;-2.33;77.75;100559.72;5051653;28;20024;-48
2022/01/24 00:33:58;;;;;;;6.32;3.30;;;;;;;-2.40;76.02;100559.28;5060544;28;20016;-50
2022/01/24 00:36:24;;;;;;;6.93;3.40;;;;;;;-2.31;78.04;100562.22;5057791;28;20452;-48
2022/01/24 00:38:49;;;;;;;4.78;3.10;;;;;;;-2.16;77.77;100567.25;5067709;28;20111;-49
2022/01/24 00:41:18;;;;;;;7.90;3.85;;;;;;;-2.17;77.54;100568.22;5054397;28;20032;-48
2022/01/24 00:46:35;;;;;;;7.68;4.22;;;;;;;-2.16;76.18;100558.59;5057637;28;20057;-48
2022/01/24 00:49:23;;;;;;;7.57;4.00;;;;;;;-2.04;73.14;100564.78;5066700;28;20107;-48
2022/01/24 00:54:43;;;;;;;9.63;4.15;;;;;;;-2.17;76.00;100576.03;5056561;28;20499;-51
2022/01/24 00:57:08;;;;;;;8.15;3.75;;;;;;;-2.15;74.32;100575.94;5058889;28;20064;-50
2022/01/24 00:59:34;;;;;;;7.97;3.83;;;;;;;-2.20;74.27;100570.19;5064064;28;20025;-48
2022/01/24 01:01:59;;;;;;;7.63;4.00;;;;;;;-2.12;75.27;100573.13;5059860;28;20020;-51
2022/01/24 01:04:32;;;;;;;8.02;4.15;;;;;;;-2.11;73.53;100580.00;5057531;28;20032;-52
2022/01/24 01:07:04;;;;;;;9.55;4.13;;;;;;;-2.12;72.92;100573.13;5068077;28;20025;-51
2022/01/24 01:20:28;;;;;;;8.88;4.32;;;;;;;-2.14;73.67;100600.25;5057800;28;20051;-51
2022/01/24 01:22:54;;;;;;;7.80;4.05;;;;;;;-2.24;74.79;100600.00;5060385;28;20024;-49
2022/01/24 01:25:19;;;;;;;8.10;4.43;;;;;;;-2.09;74.91;100608.59;5066372;28;20021;-48
2022/01/24 01:27:47;;;;;;;7.10;3.83;;;;;;;-2.00;72.62;100602.75;5058661;28;20012;-48
2022/01/24 01:30:20;;;;;;;8.45;4.40;;;;;;;-2.28;74.36;100595.94;5059229;28;20111;-48
2022/01/24 01:33:07;;;;;;;7.20;3.55;;;;;;;-2.19;75.40;100596.16;5056756;28;20098;-48
2022/01/24 01:54:49;;;;;;;5.80;3.42;;;;;;;-2.64;76.01;100594.75;5064722;28;20101;-50
2022/01/24 01:57:19;;;;;;;6.25;3.67;;;;;;;-2.64;75.61;100603.41;5050681;28;20020;-50
2022/01/24 01:59:45;;;;;;;8.60;3.85;;;;;;;-2.63;78.32;100605.09;5062926;28;20017;-47
2022/01/24 02:02:10;;;;;;;8.40;4.13;;;;;;;-2.68;77.92;100609.75;5061887;28;20503;-50
2022/01/24 02:04:36;;;;;;;8.15;4.07;;;;;;;-2.71;76.89;100606.50;5055687;28;20021;-49
2022/01/24 02:07:02;;;;;;;9.13;4.50;;;;;;;-2.71;77.30;100606.50;5065005;28;20021;-49
2022/01/24 02:09:29;;;;;;;10.73;5.30;;;;;;;-2.77;77.13;100616.38;5053408;28;20114;-50
2022/01/24 02:11:54;;;;;;;10.40;5.07;;;;;;;-2.65;77.32;100608.72;5059271;28;20218;-49
2022/01/24 02:14:23;;;;;;;7.85;4.20;;;;;;;-2.61;77.01;100612.78;5057791;28;20094;-49
2022/01/24 02:16:54;;;;;;;7.60;3.80;;;;;;;-2.68;76.75;100609.75;5060052;28;20013;-50
2022/01/24 02:19:49;;;;;;;10.93;4.68;;;;;;;-2.45;76.43;100608.28;5043873;28;20028;-48
2022/01/24 02:25:05;;;;;;;10.45;4.78;;;;;;;-2.77;77.55;100613.75;5066881;28;20365;-48
2022/01/24 02:27:41;;;;;;;8.98;5.38;;;;;;;-2.77;75.97;100610.31;5045315;28;20024;-50
2022/01/24 02:30:24;;;;;;;11.05;5.80;;;;;;;-2.85;76.48;100620.41;5059705;28;20534;-48
2022/01/24 02:32:50;;;;;;;9.85;5.10;;;;;;;-2.81;77.34;100627.09;5058662;28;20116;-52
2022/01/24 02:35:15;;;;;;;11.20;5.10;;;;;;;-2.71;75.88;100625.56;5066690;28;20146;-50
2022/01/24 02:37:41;;;;;;;10.65;5.43;;;;;;;-2.79;76.34;100625.22;5057406;28;20020;-49
2022/01/24 02:40:17;;;;;;;10.48;5.35;;;;;;;-2.86;75.82;100629.97;5059780;28;20039;-49
2022/01/24 02:48:28;;;;;;;8.65;4.85;;;;;;;-2.89;77.28;100634.53;5062894;28;20101;-50
2022/01/24 02:53:27;;;;;;;8.98;4.60;;;;;;;-2.81;77.32;100640.94;5065276;28;20053;-50
2022/01/24 02:55:52;;;;;;;8.93;4.80;;;;;;;-3.02;77.72;100614.47;5058509;28;20546;-51
2022/01/24 02:58:19;;;;;;;8.63;4.93;;;;;;;-2.67;75.21;100640.06;5058073;28;20021;-49
2022/01/24 03:00:45;;;;;;;9.68;5.13;;;;;;;-2.80;76.49;100640.03;5050679;28;20045;-49
2022/01/24 03:03:12;;;;;;;11.32;5.20;;;;;;;-2.75;75.79;100645.78;5066536;28;20017;-47
2022/01/24 03:05:37;;;;;;;8.98;4.78;;;;;;;-2.65;77.59;100651.22;5056009;28;20651;-50
2022/01/24 03:08:03;;;;;;;11.68;5.72;;;;;;;-2.67;77.60;100649.66;5067456;28;20025;-50
2022/01/24 03:10:36;;;;;;;11.10;5.97;;;;;;;-2.49;75.40;100652.91;5056177;28;20479;-50
2022/01/24 03:13:17;;;;;;;13.25;6.28;;;;;;;-2.59;75.76;100656.09;5068256;28;20093;-51
2022/01/24 03:15:43;;;;;;;13.43;5.90;;;;;;;-2.78;75.13;100656.41;5061314;28;20016;-49
2022/01/24 03:18:10;;;;;;;13.57;6.38;;;;;;;-2.63;77.06;100661.56;5062553;28;20476;-48
2022/01/24 03:20:36;;;;;;;11.25;5.75;;;;;;;-2.52;75.31;100673.94;5062057;28;20024;-50
2022/01/24 03:23:01;;;;;;;14.60;6.43;;;;;;;-2.13;73.13;100667.97;5064057;28;20009;-49
2022/01/24 03:25:27;;;;;;;10.95;5.88;;;;;;;-2.12;73.68;100671.41;5067718;28;20388;-47
2022/01/24 03:27:52;;;;;;;12.48;6.63;;;;;;;-1.97;72.87;100673.84;5061922;28;20681;-49
2022/01/24 03:30:18;;;;;;;13.02;6.72;;;;;;;-2.14;74.90;100668.88;5060896;28;20040;-51
2022/01/24 03:32:43;;;;;;;16.00;7.20;;;;;;;-2.36;76.89;100669.44;5068845;28;20021;-50
2022/01/24 03:35:09;;;;;;;17.05;7.50;;;;;;;-2.49;76.01;100674.59;5056388;28;20025;-49
2022/01/24 03:37:34;;;;;;;16.30;7.38;;;;;;;-2.37;75.78;100673.78;5066996;28;20063;-50
2022/01/24 03:40:01;;;;;;;15.50;6.55;;;;;;;-2.47;77.19;100682.31;5062551;28;20388;-49
2022/01/24 03:42:26;;;;;;;14.32;6.80;;;;;;;-2.44;75.50;100667.28;5066481;28;20525;-49
2022/01/24 03:44:57;;;;;;;12.02;5.80;;;;;;;-2.53;75.92;100680.94;5056046;28;20029;-49
2022/01/24 03:50:00;;;;;;;11.43;5.45;;;;;;;-2.46;75.58;100697.00;5056019;28;20059;-51
2022/01/24 03:52:26;;;;;;;11.50;5.50;;;;;;;-2.32;76.64;100689.16;5065984;28;20051;-50
2022/01/24 03:54:51;;;;;;;11.60;5.35;;;;;;;-2.59;76.72;100699.53;5056237;28;20025;-47
2022/01/24 03:57:18;;;;;;;9.88;5.00;;;;;;;-2.67;76.43;100699.19;5068772;28;20464;-48
2022/01/24 03:59:43;;;;;;;10.43;5.55;;;;;;;-2.58;77.68;100699.44;5059696;28;20023;-50
2022/01/24 04:02:09;;;;;;;9.13;5.15;;;;;;;-2.58;76.80;100698.63;5061400;28;20028;-51
2022/01/24 04:04:35;;;;;;;11.18;5.88;;;;;;;-2.44;76.77;100706.41;5066845;28;20044;-47
2022/01/24 04:07:00;;;;;;;11.68;5.78;;;;;;;-2.38;75.94;100698.22;5055948;28;20032;-49
2022/01/24 04:09:26;;;;;;;13.85;6.82;;;;;;;-2.35;75.77;100710.22;5067164;28;20080;-49
2022/01/24 04:11:55;;;;;;;14.27;6.95;;;;;;;-2.38;75.48;100707.78;5061211;28;20013;-50
2022/01/24 04:17:38;;;;;;;;;;;;;;;-2.28;73.99;100714.09;5066047;28;20477;-51
2022/01/24 04:22:29;;;;;;;38.90;15.30;;;;;;;-2.68;75.76;100720.97;5061427;28;20028;-52
2022/01/24 04:25:00;;;;;;;16.75;7.43;;;;;;;-2.73;76.73;100718.63;5067766;28;20051;-51
2022/01/24 04:27:26;;;;;;;13.52;7.15;;;;;;;-2.64;75.04;100723.28;5056913;28;20029;-51
2022/01/24 04:29:51;;;;;;;13.85;7.20;;;;;;;-2.53;74.07;100730.47;5062020;28;20023;-48
2022/01/24 04:32:17;;;;;;;14.45;7.07;;;;;;;-2.32;74.27;100727.41;5060125;28;20017;-36
2022/01/24 04:34:42;;;;;;;14.05;7.30;;;;;;;-2.57;75.86;100739.38;5066121;28;20461;-36
2022/01/24 04:37:08;;;;;;;14.35;7.07;;;;;;;-2.50;72.95;100743.28;5051286;28;20394;-36
2022/01/24 04:39:33;;;;;;;16.85;7.30;;;;;;;-2.58;72.29;100758.56;5057353;28;20362;-36
2022/01/24 04:42:06;;;;;;;13.32;6.93;;;;;;;-2.77;72.28;100749.25;5061323;28;20317;-36
2022/01/24 04:47:29;;;;;;;28.55;13.43;;;;;;;-3.61;73.54;100757.66;5054501;28;20154;-36
2022/01/24 04:55:07;;;;;;;32.60;15.07;;;;;;;-4.03;77.47;100771.31;5053270;28;20028;-36
2022/01/24 04:57:33;;;;;;;31.73;16.77;;;;;;;-3.96;80.34;100770.03;5065111;28;20020;-36
2022/01/24 05:00:00;;;;;;;37.45;18.73;;;;;;;-3.46;75.49;100773.34;5052926;28;20020;-36
2022/01/24 05:02:25;;;;;;;36.97;18.73;;;;;;;-2.93;72.72;100782.38;5059352;28;20032;-36
2022/01/24 05:04:52;;;;;;;31.30;14.93;;;;;;;-3.22;71.39;100771.94;5067500;28;20028;-36
2022/01/24 05:07:17;;;;;;;28.52;13.80;;;;;;;-3.59;72.78;100773.19;5066549;28;20090;-36
2022/01/24 05:09:50;;;;;;;30.13;13.48;;;;;;;-3.54;73.55;100777.22;5051052;28;20048;-37
2022/01/24 05:25:51;;;;;;;44.40;19.63;;;;;;;-2.96;69.74;100806.00;5061975;28;20036;-36
2022/01/24 05:28:17;;;;;;;37.00;15.75;;;;;;;-3.39;71.28;100805.88;5061879;28;20024;-37
2022/01/24 05:30:42;;;;;;;31.80;14.52;;;;;;;-2.84;71.16;100810.47;5053768;28;20079;-36
2022/01/24 05:33:08;;;;;;;31.35;15.18;;;;;;;-2.57;68.58;100810.59;5068895;28;20375;-36
2022/01/24 05:35:33;;;;;;;32.55;15.80;;;;;;;-2.69;69.01;100813.09;5068705;28;20020;-36
2022/01/24 05:37:59;;;;;;;29.45;14.43;;;;;;;-3.32;70.37;100812.41;5069386;28;20044;-36
2022/01/24 05:40:24;;;;;;;34.83;16.38;;;;;;;-3.30;71.25;100810.56;5047431;28;20028;-53
2022/01/24 05:42:50;;;;;;;37.75;16.98;;;;;;;-2.94;71.71;100819.78;5063880;28;20025;-51
2022/01/24 05:45:15;;;;;;;37.00;17.70;;;;;;;-2.52;69.58;100818.13;5053587;28;20376;-36
2022/01/24 05:47:41;;;;;;;90.90;35.80;;;;;;;-2.50;68.96;100818.88;5062817;28;20627;-36
2022/01/24 05:50:07;;;;;;;65.07;27.25;;;;;;;-2.28;68.41;100823.63;5049958;28;20103;-36
2022/01/24 05:52:32;;;;;;;35.40;16.92;;;;;;;-2.36;68.63;100828.50;5063403;28;20475;-51
2022/01/24 05:54:58;;;;;;;32.28;15.38;;;;;;;-2.84;71.81;100835.69;5050105;28;20036;-49
2022/01/24 05:57:23;;;;;;;29.73;14.02;;;;;;;-3.22;72.62;100830.94;5057394;28;20028;-47
2022/01/24 05:59:48;;;;;;;29.27;14.38;;;;;;;-3.64;74.81;100838.50;5055608;28;20499;-48
2022/01/24 06:02:14;;;;;;;28.55;13.98;;;;;;;-3.69;76.01;100843.13;5056521;28;20056;-47
2022/01/24 06:04:39;;;;;;;32.30;15.63;;;;;;;-3.35;74.92;100847.28;5063557;28;20484;-49
2022/01/24 06:07:05;;;;;;;55.80;24.17;;;;;;;-2.69;71.91;100845.22;5051604;28;20036;-50
2022/01/24 06:09:30;;;;;;;39.72;18.40;;;;;;;-2.11;69.68;100851.28;5063415;28;20523;-49
2022/01/24 06:11:56;;;;;;;33.75;15.43;;;;;;;-2.20;70.24;100857.06;5050388;28;20040;-48
2022/01/24 06:14:21;;;;;;;66.38;28.67;;;;;;;-1.86;68.98;100860.19;5050404;28;20025;-49
2022/01/24 06:16:47;;;;;;;71.60;30.85;;;;;;;-2.00;70.11;100858.44;5049165;28;20491;-50
2022/01/24 06:19:12;;;;;;;37.50;17.40;;;;;;;-1.78;70.32;100864.00;5066304;28;20385;-50
2022/01/24 06:21:38;;;;;;;26.02;12.82;;;;;;;-2.58;73.61;100868.88;5056442;28;20017;-47
2022/01/24 06:24:04;;;;;;;24.48;11.93;;;;;;;-3.08;75.30;100862.25;5061439;28;20070;-52
2022/01/24 06:26:30;;;;;;;23.55;11.10;;;;;;;-3.05;73.80;100866.44;5055661;28;20469;-52
2022/01/24 06:28:55;;;;;;;25.20;11.98;;;;;;;-3.23;76.22;100876.16;5066370;28;20070;-50
2022/01/24 06:31:20;;;;;;;25.27;11.77;;;;;;;-3.17;77.48;100871.44;5053795;28;20142;-49
2022/01/24 06:33:48;;;;;;;26.70;11.80;;;;;;;-2.76;74.56;100881.22;5062115;28;20070;-51
2022/01/24 06:36:14;;;;;;;25.92;12.50;;;;;;;-2.09;71.39;100885.94;5061665;28;20086;-50
2022/01/24 06:38:39;;;;;;;26.35;12.05;;;;;;;-2.22;72.77;100898.88;5054162;28;20024;-52
2022/01/24 06:41:05;;;;;;;25.40;12.30;;;;;;;-2.43;72.11;100897.56;5065939;28;20032;-48
2022/01/24 06:43:30;;;;;;;29.55;14.10;;;;;;;-2.37;73.58;100900.63;5054973;28;20013;-50
2022/01/24 06:45:56;;;;;;;31.13;14.82;;;;;;;-2.02;74.10;100907.25;5060183;28;20029;-51
2022/01/24 06:48:22;;;;;;;48.85;21.75;;;;;;;-2.01;70.77;100915.00;5064734;28;20107;-51
2022/01/24 06:50:47;;;;;;;29.20;13.73;;;;;;;-1.97;71.61;100915.66;5056755;28;20496;-52
2022/01/24 06:53:13;;;;;;;28.77;13.45;;;;;;;-2.08;73.77;100921.50;5069440;28;20037;-52
2022/01/24 06:55:38;;;;;;;28.50;14.00;;;;;;;-1.47;71.38;100922.09;5059984;28;20013;-51
2022/01/24 06:58:04;;;;;;;31.02;14.50;;;;;;;-1.42;69.88;100912.19;5062753;28;20380;-51
2022/01/24 07:00:31;;;;;;;32.65;15.23;;;;;;;-1.05;67.27;100928.13;5066502;28;20105;-50
2022/01/24 07:02:56;;;;;;;33.65;17.08;;;;;;;-1.14;66.14;100927.88;5056812;28;20103;-50
2022/01/24 07:05:23;;;;;;;42.63;19.50;;;;;;;-1.22;68.23;100925.75;5067994;28;20459;-49
2022/01/24 07:07:48;;;;;;;44.25;19.80;;;;;;;-1.10;67.36;100932.81;5049479;28;20478;-48
2022/01/24 07:10:14;;;;;;;41.45;20.15;;;;;;;-1.14;65.54;100933.94;5061078;28;20053;-51
2022/01/24 07:12:39;;;;;;;43.85;20.23;;;;;;;-1.37;67.01;100943.25;5067817;28;20411;-49
2022/01/24 07:15:10;;;;;;;42.72;19.35;;;;;;;-1.52;70.46;100942.44;5054846;28;20036;-51
2022/01/24 07:20:11;;;;;;;34.03;15.98;;;;;;;-1.56;70.74;100940.97;5063925;28;20060;-52
2022/01/24 07:22:37;;;;;;;38.20;18.17;;;;;;;-1.36;70.71;100941.47;5057747;28;20029;-50
2022/01/24 07:25:02;;;;;;;37.72;17.45;;;;;;;-0.58;68.66;100944.22;5068468;28;20029;-52
2022/01/24 07:27:28;;;;;;;40.40;16.55;;;;;;;-0.78;68.55;100942.97;5057745;28;20505;-49
2022/01/24 07:29:53;;;;;;;27.60;14.52;;;;;;;-0.16;66.28;100950.13;5063675;28;20025;-50
2022/01/24 07:32:19;;;;;;;24.50;12.05;;;;;;;-0.74;69.27;100954.03;5064618;28;20444;-50
2022/01/24 07:34:44;;;;;;;23.90;12.15;;;;;;;-1.42;70.65;100953.97;5056331;28;20404;-48
2022/01/24 07:37:10;;;;;;;23.27;12.15;;;;;;;-1.41;71.15;100955.66;5069020;28;20028;-51
2022/01/24 07:39:35;;;;;;;23.83;12.27;;;;;;;-0.48;70.06;100955.75;5058807;28;20024;-52
2022/01/24 07:42:14;;;;;;;25.48;12.85;;;;;;;0.10;69.88;100965.84;5061958;28;20108;-52
2022/01/24 07:44:39;;;;;;;25.10;13.10;;;;;;;-0.21;66.57;100965.28;5067485;28;20496;-49
2022/01/24 07:47:05;;;;;;;26.50;14.13;;;;;;;0.10;67.13;100966.66;5055803;28;20032;-52
2022/01/24 07:49:31;;;;;;;29.85;14.45;;;;;;;0.65;69.28;100969.81;5066292;28;20081;-52
2022/01/24 07:51:57;;;;;;;23.42;12.50;;;;;;;0.46;65.22;100972.91;5061788;28;20028;-52
2022/01/24 07:54:22;;;;;;;21.27;12.00;;;;;;;0.35;67.12;100957.09;5067865;28;20389;-54
2022/01/24 07:56:48;;;;;;;22.02;12.52;;;;;;;0.49;67.65;100953.50;5055452;28;20025;-52
2022/01/24 07:59:15;;;;;;;21.17;11.25;;;;;;;0.71;65.81;100951.03;5068375;28;20449;-53
2022/01/24 08:01:41;;;;;;;18.13;10.55;;;;;;;0.56;63.20;100954.75;5052025;28;20039;-50
2022/01/24 08:04:07;;;;;;;19.88;10.65;;;;;;;0.72;62.08;100959.72;5062961;28;20453;-51
2022/01/24 08:06:33;;;;;;;19.45;10.20;;;;;;;0.82;61.13;100942.41;5056822;28;20455;-51
2022/01/24 08:08:59;;;;;;;18.27;9.63;;;;;;;1.05;58.28;100950.34;5067281;28;20052;-53
2022/01/24 08:11:24;;;;;;;11.52;6.75;;;;;;;0.88;53.81;100951.63;5057130;28;20024;-50
2022/01/24 08:13:51;;;;;;;17.30;8.93;;;;;;;0.90;56.18;100947.09;5062313;28;20029;-49
2022/01/24 08:16:17;;;;;;;11.10;5.90;;;;;;;0.32;51.45;100959.94;5064092;28;20403;-52
2022/01/24 08:18:43;;;;;;;9.55;5.40;;;;;;;0.54;48.86;100948.78;5055885;28;20052;-52
2022/01/24 08:21:08;;;;;;;10.38;5.97;;;;;;;0.81;49.50;100955.63;5068230;28;20067;-53
2022/01/24 08:23:34;;;;;;;9.07;5.38;;;;;;;1.02;50.16;100963.72;5057856;28;20031;-53
2022/01/24 08:25:59;;;;;;;10.60;5.90;;;;;;;1.05;47.87;100963.47;5061875;28;20028;-52
2022/01/24 08:28:24;;;;;;;11.77;6.30;;;;;;;1.12;48.50;100968.19;5065121;28;20439;-51
2022/01/24 08:30:52;;;;;;;10.55;5.50;;;;;;;0.90;49.50;100962.81;5055132;28;20025;-51
2022/01/24 08:33:17;;;;;;;11.75;5.95;;;;;;;1.05;49.20;100971.34;5067357;28;20469;-50
2022/01/24 08:35:43;;;;;;;12.20;7.10;;;;;;;1.34;48.56;100982.31;5058620;28;20127;-53
2022/01/24 08:38:08;;;;;;;10.18;6.05;;;;;;;1.15;47.96;100972.34;5060552;28;20025;-51
2022/01/24 08:40:35;;;;;;;9.40;5.43;;;;;;;1.53;47.80;100973.94;5066010;28;20418;-52
2022/01/24 08:43:06;;;;;;;9.27;5.28;;;;;;;1.26;45.85;100980.28;5054519;28;20025;-52
2022/01/24 08:48:12;;;;;;;8.38;5.28;;;;;;;1.67;45.08;100988.63;5063174;28;20028;-53
2022/01/24 08:50:37;;;;;;;10.38;5.30;;;;;;;1.55;45.28;100996.47;5055486;28;20456;-53
2022/01/24 08:53:03;;;;;;;8.02;4.88;;;;;;;1.41;45.79;100999.28;5067570;28;20054;-51
2022/01/24 08:55:32;;;;;;;7.45;4.93;;;;;;;1.39;44.55;101006.44;5056418;28;20016;-51
2022/01/24 08:57:58;;;;;;;9.07;4.95;;;;;;;1.02;45.99;101016.16;5061422;28;20031;-50
2022/01/24 09:00:24;;;;;;;9.30;4.85;;;;;;;1.31;44.19;101003.53;5062297;28;20021;-52
2022/01/24 09:02:50;;;;;;;8.95;4.90;;;;;;;1.36;44.33;101006.66;5054172;28;20039;-50
2022/01/24 09:05:17;;;;;;;7.55;4.43;;;;;;;1.22;44.76;101006.81;5066859;28;20043;-52
2022/01/24 09:07:43;;;;;;;8.32;4.70;;;;;;;1.02;44.54;101014.34;5058423;28;20451;-50
2022/01/24 09:10:09;;;;;;;9.35;4.47;;;;;;;0.80;44.98;101016.81;5059139;28;20079;-52
2022/01/24 09:12:34;;;;;;;8.45;4.80;;;;;;;0.41;45.07;101024.78;5065438;28;20404;-52
2022/01/24 09:15:00;;;;;;;8.45;4.60;;;;;;;0.89;45.25;101017.00;5053808;28;20115;-53
2022/01/24 09:17:25;;;;;;;9.13;4.53;;;;;;;1.33;41.70;101015.59;5065319;28;20013;-52
2022/01/24 09:19:50;;;;;;;8.25;4.65;;;;;;;1.13;43.50;100990.81;5059356;28;20027;-51
2022/01/24 09:22:16;;;;;;;8.57;5.25;;;;;;;0.96;44.02;101014.78;5058029;28;20028;-51
2022/01/24 09:24:41;;;;;;;6.72;4.05;;;;;;;1.21;42.77;101010.41;5066242;28;20322;-51
2022/01/24 09:27:07;;;;;;;7.18;4.25;;;;;;;1.59;40.88;101019.88;5053163;28;20021;-49
2022/01/24 09:29:32;;;;;;;6.38;3.83;;;;;;;0.77;42.45;101015.28;5064258;28;20021;-51
2022/01/24 09:31:58;;;;;;;8.80;4.72;;;;;;;1.06;42.61;101013.19;5060423;28;20617;-52
2022/01/24 09:34:23;;;;;;;7.38;4.45;;;;;;;1.13;43.91;101019.66;5057117;28;20029;-53
2022/01/24 09:36:49;;;;;;;8.20;4.53;;;;;;;1.32;43.91;101008.66;5066936;28;20020;-50
2022/01/24 09:39:15;;;;;;;12.35;5.60;;;;;;;1.47;43.93;101011.94;5054557;28;20020;-51
2022/01/24 09:41:41;;;;;;;7.85;4.82;;;;;;;1.54;42.09;101013.19;5062812;28;20028;-52
2022/01/24 09:44:06;;;;;;;7.55;4.50;;;;;;;1.64;43.78;101013.31;5061108;28;20024;-50
2022/01/24 09:46:36;;;;;;;7.05;4.78;;;;;;;1.53;43.13;101016.75;5055635;28;20445;-50
2022/01/24 09:49:02;;;;;;;7.63;4.05;;;;;;;1.55;42.34;101006.97;5066840;28;20021;-52
2022/01/24 09:51:28;;;;;;;8.25;4.30;;;;;;;1.51;42.20;101008.13;5055785;28;20036;-53
2022/01/24 09:53:53;;;;;;;8.13;4.30;;;;;;;1.63;44.35;101009.00;5060857;28;20025;-49
2022/01/24 09:56:19;;;;;;;8.30;4.65;;;;;;;1.67;42.90;101001.75;5061154;28;20024;-49
2022/01/24 09:58:44;;;;;;;10.52;5.20;;;;;;;1.87;42.42;100993.22;5053326;28;20039;-49
2022/01/24 10:01:10;;;;;;;15.95;5.55;;;;;;;1.88;42.04;100994.88;5050238;28;20017;-53
2022/01/24 10:03:36;;;;;;;7.82;4.85;;;;;;;1.74;42.38;100995.91;5049842;28;20045;-52
2022/01/24 10:06:02;;;;;;;8.93;4.97;;;;;;;1.88;41.93;100991.41;5049851;28;20078;-52
2022/01/24 10:08:29;;;;;;;8.85;5.00;;;;;;;1.99;42.63;100994.06;5048832;28;20029;-50
2022/01/24 10:10:56;;;;;;;7.78;5.20;;;;;;;2.04;43.23;100994.56;5049984;28;20013;-52
2022/01/24 10:16:35;;;;;;;12.60;5.72;;;;;;;1.93;41.75;100997.16;5050253;28;20087;-50
2022/01/24 10:19:04;;;;;;;12.00;5.95;;;;;;;1.98;41.00;100984.53;5050271;28;20115;-51
2022/01/24 10:21:35;;;;;;;10.70;5.95;;;;;;;2.07;41.28;100985.59;5070797;28;20107;-52
2022/01/24 10:24:01;;;;;;;15.13;6.15;;;;;;;1.58;43.42;100984.06;5056264;28;20025;-53
2022/01/24 10:26:26;;;;;;;12.70;6.43;;;;;;;2.23;43.58;100985.22;5053438;28;20021;-53
2022/01/24 10:28:51;;;;;;;10.05;5.75;;;;;;;1.92;43.46;100979.72;5053321;28;20024;-52
2022/01/24 10:31:28;;;;;;;12.18;5.95;;;;;;;1.89;42.30;100985.22;5053606;28;20136;-51
2022/01/24 10:34:05;;;;;;;15.15;5.55;;;;;;;2.19;40.97;100986.44;5053628;28;20053;-53
2022/01/24 10:36:52;;;;;;;7.03;4.63;;;;;;;2.44;41.33;100988.00;5053803;28;20025;-50
2022/01/24 10:39:28;;;;;;;9.45;4.80;;;;;;;1.93;41.84;100978.78;5053337;28;20035;-52
2022/01/24 10:45:15;;;;;;;10.55;4.93;;;;;;;2.11;41.27;100977.38;5053592;28;20043;-51
2022/01/24 10:47:45;;;;;;;12.48;5.75;;;;;;;2.11;41.86;100984.41;5053710;28;20021;-51
2022/01/24 10:50:18;;;;;;;9.68;5.20;;;;;;;2.31;39.71;100983.69;5053442;28;20225;-51
2022/01/24 10:52:43;;;;;;;8.15;5.38;;;;;;;2.42;39.77;100982.88;5053280;28;20064;-53
2022/01/24 10:55:16;;;;;;;9.68;5.10;;;;;;;2.48;40.53;100982.38;5053367;28;20021;-51
2022/01/24 10:57:43;;;;;;;8.25;4.35;;;;;;;1.92;38.68;100970.09;5053127;28;20024;-52
2022/01/24 11:00:09;;;;;;;9.77;4.80;;;;;;;2.14;38.77;100973.66;5053402;28;20100;-53
2022/01/24 11:02:35;;;;;;;13.73;5.22;;;;;;;2.30;38.96;100979.41;5053218;28;20116;-52
2022/01/24 11:05:11;;;;;;;15.95;5.95;;;;;;;2.43;38.98;100978.44;5053156;28;20017;-51
2022/01/24 11:07:54;;;;;;;7.57;4.80;;;;;;;2.06;38.12;100978.69;5053525;28;20029;-50
2022/01/24 11:10:21;;;;;;;8.07;4.30;;;;;;;1.85;39.88;100978.53;5053200;28;20048;-49
2022/01/24 11:12:46;;;;;;;14.43;5.10;;;;;;;1.66;38.96;100972.06;5053248;28;20301;-52
2022/01/24 11:15:11;;;;;;;9.90;5.00;;;;;;;1.29;40.65;100976.56;5052809;28;20021;-50
2022/01/24 11:17:37;;;;;;;8.23;4.75;;;;;;;1.48;40.53;100976.88;5053464;28;20021;-49
2022/01/24 11:20:03;;;;;;;14.23;5.68;;;;;;;1.14;40.42;100970.66;5052755;28;20083;-51
2022/01/24 11:22:31;;;;;;;12.35;5.43;;;;;;;1.19;40.53;100971.16;5052410;28;20052;-50
2022/01/24 11:25:04;;;;;;;8.90;4.72;;;;;;;0.91;40.40;100972.34;5052215;28;20492;-51
2022/01/24 11:27:29;;;;;;;10.75;5.38;;;;;;;0.75;40.80;100973.44;5051992;28;20107;-53
2022/01/24 11:29:56;;;;;;;9.35;5.30;;;;;;;0.78;40.19;100970.63;5052191;28;20112;-49
2022/01/24 11:32:38;;;;;;;8.52;4.85;;;;;;;1.03;39.82;100970.59;5052482;28;20116;-51
2022/01/24 11:35:03;;;;;;;7.50;4.40;;;;;;;0.67;39.35;100969.72;5050962;28;20441;-49
2022/01/24 11:37:42;;;;;;;8.77;4.53;;;;;;;1.05;39.82;100976.56;5052219;28;20017;-51
2022/01/24 11:40:18;;;;;;;8.98;4.82;;;;;;;0.90;40.25;100981.16;5052450;28;20028;-50
2022/01/24 11:42:47;;;;;;;8.52;5.10;;;;;;;0.99;40.21;100977.88;5051811;28;20686;-48
2022/01/24 11:45:15;;;;;;;12.73;5.27;;;;;;;1.17;39.83;100979.16;5051764;28;20103;-50
2022/01/24 11:47:41;;;;;;;7.35;4.55;;;;;;;1.27;40.72;100988.97;5051655;28;20029;-51
2022/01/24 11:50:25;;;;;;;9.77;4.80;;;;;;;0.82;41.27;100986.09;5051903;28;20025;-48
2022/01/24 11:52:51;;;;;;;8.23;4.55;;;;;;;0.69;41.83;100989.63;5049835;28;20048;-51
2022/01/24 11:55:30;;;;;;;13.57;6.30;;;;;;;0.35;42.66;100980.69;5051376;28;20124;-51
2022/01/24 11:58:03;;;;;;;17.27;5.93;;;;;;;0.48;42.67;100981.50;5049336;28;20043;-52
2022/01/24 12:00:31;;;;;;;10.55;4.90;;;;;;;0.29;42.10;100965.41;5048343;28;20453;-49
2022/01/24 12:02:59;;;;;;;11.52;5.22;;;;;;;-0.08;42.30;100975.78;5050776;28;20106;-51
2022/01/24 12:05:39;;;;;;;7.00;4.45;;;;;;;0.13;41.60;100982.19;5049775;28;20496;-49
2022/01/24 12:08:05;;;;;;;8.88;4.60;;;;;;;-0.11;40.45;100976.00;5050879;28;20115;-50
2022/01/24 12:10:36;;;;;;;8.27;4.45;;;;;;;0.23;41.64;100982.38;5050259;28;20131;-49
2022/01/24 12:13:14;;;;;;;10.07;4.80;;;;;;;0.48;39.93;100984.13;5050475;28;20037;-52
2022/01/24 12:15:43;;;;;;;7.68;4.43;;;;;;;0.49;40.34;100980.53;5050845;28;20090;-52
2022/01/24 12:18:18;;;;;;;8.10;4.63;;;;;;;1.03;40.65;100975.84;5048211;28;20013;-52
2022/01/24 12:20:54;;;;;;;10.02;5.00;;;;;;;0.98;40.27;100979.66;5050319;28;20024;-51
2022/01/24 12:23:19;;;;;;;9.23;4.82;;;;;;;1.13;39.46;100982.94;5050332;28;20051;-49
2022/01/24 12:25:57;;;;;;;9.20;4.82;;;;;;;1.54;39.96;100973.81;5050101;28;20028;-51
2022/01/24 12:28:27;;;;;;;7.07;4.18;;;;;;;1.54;38.03;100975.59;5050269;28;20025;-50
2022/01/24 12:31:00;;;;;;;7.57;4.47;;;;;;;1.92;37.12;100977.09;5050439;28;20021;-50
2022/01/24 12:33:42;;;;;;;7.20;4.57;;;;;;;1.61;38.11;100982.06;5050941;28;20025;-48
2022/01/24 12:36:12;;;;;;;7.55;4.60;;;;;;;1.44;38.37;100978.06;5049206;28;20441;-37
2022/01/24 12:38:51;;;;;;;10.00;5.00;;;;;;;1.86;37.44;100975.78;5050726;28;20484;-37
2022/01/24 12:41:23;;;;;;;9.68;5.20;;;;;;;1.82;37.40;100976.97;5050806;28;20029;-37
2022/01/24 12:46:31;;;;;;;11.15;5.20;;;;;;;1.60;38.86;100984.78;5049744;28;20033;-37
2022/01/24 12:48:58;;;;;;;8.32;4.90;;;;;;;1.70;37.94;100986.63;5050626;28;20120;-37
2022/01/24 12:51:24;;;;;;;10.23;5.07;;;;;;;1.17;38.52;100994.88;5050617;28;20048;-38
2022/01/24 12:53:51;;;;;;;11.48;6.30;;;;;;;1.20;38.76;100995.59;5050489;28;20050;-38
2022/01/24 12:56:18;;;;;;;12.05;5.60;;;;;;;0.93;39.06;101004.53;5049110;28;20021;-38
2022/01/24 12:58:45;;;;;;;10.43;4.93;;;;;;;1.20;38.97;100999.09;5050396;28;20437;-38
2022/01/24 13:01:21;;;;;;;7.93;5.03;;;;;;;1.24;39.56;100999.66;5050073;28;20032;-37
2022/01/24 13:03:55;;;;;;;9.48;5.25;;;;;;;1.41;39.66;101004.53;5050335;28;20037;-37
2022/01/24 13:06:21;;;;;;;9.60;5.00;;;;;;;1.57;36.86;101001.59;5050034;28;20492;-37
2022/01/24 13:08:56;;;;;;;10.77;4.85;;;;;;;1.35;36.84;101000.59;5050300;28;20033;-37